Latest Weather Observations for Cape Otway

IDV60801

Issued at 12:31 pm EST Monday 3 August 2015 (issued every 30 minutes, with the page automatically refreshed every 10 minutes)

About weather observations | Map of weather stations | Latest weather observations for VIC | Other Formats
Station Details ID: 090015 Name: CAPE OTWAY LIGHTHOUSE Lat: -38.86 Lon: 143.51 Height: 82.0 m
Data from the previous 72 hours. | See also: Recent months at Cape Otway
Date/Time
EST
Temp
°C
App
Temp
°C
Dew
Point
Rel
Hum
%
Delta-T
°C
Wind Press
QNH
hPa
Press
MSL
hPa
Rain
since 9 am
mm
Dir
 
Spd
km/h
Gust
km/h
Spd
kts
Gust
kts
03/12:30pm 8.4 -2.4 1.8 63 2.7 SW 48 67 26 36 1019.0 - 0.4
03/12:27pm 8.5 -2.3 1.9 63 2.7 SW 48 67 26 36 1019.1 - 0.4
03/12:22pm 8.3 -3.3 1.9 64 2.6 SW 52 67 28 36 1019.0 - 0.4
03/12:04pm 7.9 -0.7 2.8 70 2.1 WSW 37 56 20 30 1019.0 - 0.4
03/12:00pm 7.8 -1.5 2.7 70 2.1 WSW 41 56 22 30 1019.0 1019.1 0.4
03/11:30am 7.4 -3.7 2.5 71 2.0 SW 50 69 27 37 1018.8 - 0.4
03/11:18am 7.2 -3.1 2.9 74 1.8 SSW 46 74 25 40 1018.8 - 0.4
03/11:16am 7.1 -3.2 2.6 73 1.9 SSW 46 74 25 40 1018.8 - 0.4
03/11:01am 7.2 -3.3 1.5 67 2.3 WSW 46 65 25 35 1018.7 - 0.4
03/11:00am 7.4 -3.4 1.9 68 2.3 WSW 48 65 26 35 1018.7 - 0.4
03/10:48am 7.5 0.0 3.2 74 1.8 WSW 32 50 17 27 1018.5 - 0.2
03/10:30am 6.3 -2.1 3.5 82 1.2 SW 37 61 20 33 1018.5 - 0.2
03/10:26am 6.1 -2.8 3.1 81 1.3 SW 39 70 21 38 1018.4 - 0.2
03/10:14am 6.8 -6.5 1.9 71 2.0 SW 61 80 33 43 1017.8 - 0.0
03/10:00am 8.3 -1.4 0.5 58 3.1 WSW 41 59 22 32 1017.4 - 0.0
03/09:30am 7.8 -3.5 1.0 62 2.7 WSW 50 69 27 37 1016.9 - 0.0
03/09:02am 7.8 -5.8 -0.4 56 3.2 SW 61 80 33 43 1016.4 - 0.0
03/09:00am 7.7 -6.7 -0.8 55 3.3 SW 65 80 35 43 1016.2 1016.3 9.0
03/08:30am 7.5 -2.5 2.0 68 2.3 WSW 44 65 24 35 1015.8 - 9.0
03/08:24am 7.0 -1.2 2.5 73 1.9 WSW 35 57 19 31 1015.7 - 9.0
03/08:15am 5.9 -3.7 1.1 71 1.9 WSW 41 78 22 42 1015.8 - 9.0
03/08:00am 7.4 -6.3 1.5 66 2.4 SW 63 85 34 46 1014.8 - 9.0
03/07:30am 7.9 -4.5 1.7 65 2.5 WSW 56 76 30 41 1013.9 - 9.0
03/07:02am 6.1 -8.5 2.9 80 1.3 SW 69 91 37 49 1013.1 - 9.0
03/07:01am 6.2 -4.0 3.2 81 1.3 WSW 46 89 25 48 1013.2 - 9.0
03/07:00am 6.3 -2.9 3.5 82 1.2 WSW 41 83 22 45 1013.4 - 9.0
03/06:58am 6.2 -3.1 3.2 81 1.3 WSW 41 83 22 45 1013.4 - 8.8
03/06:54am 6.2 -6.9 2.7 78 1.4 SW 61 83 33 45 1013.0 - 8.6
03/06:30am 8.1 -3.4 2.4 67 2.4 WSW 52 72 28 39 1012.3 - 8.4
03/06:08am 6.8 -3.3 3.8 81 1.3 SW 46 91 25 49 1012.2 - 8.4
03/06:07am 6.9 -3.6 3.9 81 1.3 SW 48 91 26 49 1012.2 - 8.4
03/06:00am 6.5 -9.1 2.9 78 1.5 SW 74 102 40 55 1011.9 1012.0 8.4
03/05:53am 7.1 -10.2 2.8 74 1.8 SW 83 102 45 55 1011.6 - 8.4
03/05:51am 8.3 -3.5 2.8 68 2.3 WSW 54 91 29 49 1011.6 - 8.4
03/05:30am 7.6 -2.2 3.6 76 1.7 WSW 44 65 24 35 1011.3 - 8.4
03/05:23am 7.2 -2.6 3.6 78 1.5 WSW 44 70 24 38 1011.4 - 8.4
03/05:17am 7.2 -3.7 3.8 79 1.5 WSW 50 83 27 45 1011.4 - 8.4
03/05:07am 7.2 -7.9 3.4 77 1.6 SW 72 91 39 49 1011.0 - 8.4
03/05:06am 7.2 -8.8 2.9 74 1.8 SW 76 91 41 49 1010.9 - 8.4
03/05:00am 8.2 -3.4 3.7 73 1.9 WSW 54 76 29 41 1010.8 - 8.4
03/04:30am 7.1 -5.4 4.2 82 1.3 WSW 59 87 32 47 1010.2 - 8.4
03/04:00am 8.0 -4.0 4.6 79 1.5 WSW 57 87 31 47 1009.8 - 8.2
03/03:30am 8.4 -2.7 4.4 76 1.8 WSW 52 78 28 42 1009.3 - 8.0
03/03:00am 9.0 -2.2 4.0 71 2.2 W 52 80 28 43 1009.1 1009.2 8.0
03/02:30am 8.6 -3.4 4.8 77 1.7 WSW 57 83 31 45 1008.7 - 8.0
03/02:00am 8.2 -5.0 4.4 77 1.7 W 63 96 34 52 1008.3 - 8.0
03/01:30am 9.4 -2.6 6.5 82 1.4 W 59 80 32 43 1008.0 - 7.8
03/01:00am 7.5 -5.8 6.0 90 0.7 W 65 109 35 59 1007.9 - 7.6
03/12:54am 5.9 -9.6 3.6 85 1.0 W 74 109 40 59 1008.1 - 7.4
03/12:52am 9.0 -0.8 7.0 87 0.9 W 48 109 26 59 1007.8 - 6.2
03/12:30am 9.1 -0.7 6.9 86 1.0 W 48 70 26 38 1007.7 - 6.2
03/12:00am 9.0 -2.8 7.3 89 0.8 W 59 95 32 51 1007.6 1007.7 5.6
 
Date/Time
EST
Temp
°C
App
Temp
°C
Dew
Point
Rel
Hum
%
Delta-T
°C
Wind Press
QNH
hPa
Press
MSL
hPa
Rain
since 9 am
mm
Dir
 
Spd
km/h
Gust
km/h
Spd
kts
Gust
kts
02/11:30pm 10.2 -0.6 6.0 75 1.9 W 52 80 28 43 1007.5 - 5.0
02/11:00pm 10.5 -1.7 5.7 72 2.2 W 59 87 32 47 1007.3 - 5.0
02/10:30pm 10.2 -0.3 5.8 74 2.0 W 50 78 27 42 1007.6 - 5.0
02/10:00pm 10.0 0.3 5.8 75 1.9 W 46 72 25 39 1007.6 - 4.8
02/09:43pm 9.3 0.5 5.7 78 1.6 W 41 65 22 35 1007.9 - 4.6
02/09:40pm 9.1 0.3 5.5 78 1.6 WNW 41 65 22 35 1008.0 - 4.6
02/09:30pm 9.1 -3.5 5.7 79 1.6 W 61 87 33 47 1008.0 - 4.6
02/09:00pm 10.4 0.2 5.4 71 2.3 WNW 48 78 26 42 1007.8 1007.9 4.6
02/08:30pm 10.5 -0.4 5.7 72 2.2 W 52 72 28 39 1007.9 - 4.6
02/08:00pm 10.0 -0.2 5.0 71 2.3 W 48 72 26 39 1008.0 - 4.4
02/07:30pm 9.0 -3.4 4.6 74 2.0 W 59 89 32 48 1008.1 - 4.4
02/07:27pm 9.3 -4.7 4.3 71 2.2 W 67 89 36 48 1007.8 - 4.4
02/07:00pm 10.3 0.4 4.7 68 2.5 W 46 67 25 36 1008.0 - 4.4
02/06:30pm 10.3 0.0 4.9 69 2.4 W 48 72 26 39 1007.9 - 4.4
02/06:00pm 10.0 -0.6 5.0 71 2.3 W 50 78 27 42 1007.6 1007.7 4.4
02/05:30pm 9.7 -0.4 5.5 75 1.9 W 48 67 26 36 1007.6 - 4.4
02/05:06pm 9.9 -0.7 5.3 73 2.1 W 50 70 27 38 1007.3 - 4.4
02/05:00pm 9.8 -1.0 5.8 76 1.8 W 52 67 28 36 1007.4 - 4.4
02/04:30pm 10.0 0.8 6.5 79 1.6 W 44 67 24 36 1007.2 - 4.2
02/04:00pm 9.7 0.0 5.9 77 1.8 W 46 69 25 37 1007.3 - 4.2
02/03:31pm 9.5 0.7 7.3 86 1.0 W 43 63 23 34 1007.5 - 4.2
02/03:30pm 9.5 0.7 7.3 86 1.0 W 43 59 23 32 1007.5 - 4.2
02/03:00pm 8.9 0.5 7.2 89 0.8 W 41 57 22 31 1007.5 1007.6 4.0
02/02:50pm 9.2 1.1 7.2 87 0.9 W 39 57 21 31 1007.5 - 3.8
02/02:30pm 8.9 1.2 7.2 89 0.8 W 37 52 20 28 1007.1 - 3.8
02/02:00pm 8.6 0.1 6.9 89 0.8 WSW 41 61 22 33 1007.1 - 3.4
02/01:30pm 9.0 -0.4 7.1 88 0.9 WSW 46 65 25 35 1007.2 - 2.8
02/01:26pm 9.6 0.3 7.7 88 0.9 W 46 65 25 35 1007.1 - 2.2
02/01:00pm 9.9 -0.2 7.2 83 1.3 WNW 50 78 27 42 1006.5 - 1.2
02/12:30pm 10.1 1.1 6.3 77 1.8 WNW 43 67 23 36 1006.8 - 0.4
02/12:00pm 10.7 1.6 6.1 73 2.2 WNW 43 69 23 37 1007.1 1007.2 0.0
02/11:30am 11.1 2.3 5.6 69 2.5 WNW 41 61 22 33 1007.8 - 0.0
02/11:00am 10.5 1.7 5.5 71 2.3 NW 41 59 22 32 1008.1 - 0.0
02/10:30am 10.0 1.8 5.0 71 2.3 NW 37 56 20 30 1008.2 - 0.0
02/10:00am 9.6 1.0 4.6 71 2.2 NW 39 61 21 33 1008.7 - 0.0
02/09:30am 9.3 1.4 4.5 72 2.1 NW 35 59 19 32 1008.9 - 0.0
02/09:02am 8.8 1.3 4.4 74 1.9 NW 33 56 18 30 1009.1 - 0.0
02/09:00am 8.9 1.4 4.5 74 2.0 NW 33 50 18 27 1009.1 1009.2 0.0
02/08:30am 8.4 0.5 4.2 75 1.8 NW 35 54 19 29 1009.5 - 0.0
02/08:00am 7.9 0.0 4.3 78 1.6 NW 35 56 19 30 1009.6 - 0.0
02/07:30am 7.8 0.5 4.4 79 1.5 NW 32 50 17 27 1009.6 - 0.0
02/07:04am 7.7 0.4 4.3 79 1.5 NW 32 57 17 31 1009.6 - 0.0
02/07:00am 7.7 0.7 4.3 79 1.5 NW 30 46 16 25 1009.6 - 0.0
02/06:30am 8.0 0.6 4.0 76 1.7 NW 32 52 17 28 1009.7 - 0.0
02/06:00am 7.8 0.4 3.8 76 1.7 NW 32 50 17 27 1010.0 1010.1 0.0
02/05:56am 7.8 0.7 3.8 76 1.7 NW 30 50 16 27 1010.0 - 0.0
02/05:30am 8.0 1.3 3.8 75 1.8 NW 28 43 15 23 1010.3 - 0.0
02/05:04am 7.9 1.2 3.6 74 1.9 NW 28 52 15 28 1010.4 - 0.0
02/05:00am 7.8 1.5 3.5 74 1.8 NW 26 43 14 23 1010.6 - 0.0
02/04:30am 8.2 1.5 3.5 72 2.0 NW 28 44 15 24 1010.9 - 0.0
02/04:19am 8.3 1.6 3.6 72 2.0 NW 28 48 15 26 1011.0 - 0.0
02/04:00am 8.3 0.8 3.4 71 2.1 NW 32 46 17 25 1011.1 - 0.0
02/03:30am 8.2 1.8 3.3 71 2.1 NW 26 44 14 24 1011.6 - 0.0
02/03:00am 8.2 2.2 3.1 70 2.2 NW 24 39 13 21 1012.1 1012.2 0.0
02/02:30am 8.5 1.7 3.1 69 2.3 NW 28 43 15 23 1012.4 - 0.0
02/02:00am 8.5 2.1 3.4 70 2.2 NW 26 41 14 22 1012.7 - 0.0
02/01:30am 8.3 2.3 3.2 70 2.2 NW 24 39 13 21 1013.1 - 0.0
02/01:00am 8.3 2.6 2.8 68 2.3 NW 22 37 12 20 1013.2 - 0.0
02/12:30am 8.3 2.6 3.0 69 2.3 NW 22 35 12 19 1013.5 - 0.0
02/12:00am 8.2 2.1 2.9 69 2.2 NW 24 41 13 22 1013.9 1014.0 0.0
 
Date/Time
EST
Temp
°C
App
Temp
°C
Dew
Point
Rel
Hum
%
Delta-T
°C
Wind Press
QNH
hPa
Press
MSL
hPa
Rain
since 9 am
mm
Dir
 
Spd
km/h
Gust
km/h
Spd
kts
Gust
kts
01/11:30pm 8.2 2.6 3.3 71 2.1 NW 22 37 12 20 1014.0 - 0.0
01/11:00pm 8.4 2.4 3.3 70 2.2 NW 24 41 13 22 1014.3 - 0.0
01/10:30pm 8.5 2.5 3.6 71 2.1 NW 24 37 13 20 1014.4 - 0.0
01/10:00pm 8.0 2.9 3.3 72 2.0 NW 19 30 10 16 1014.4 - 0.0
01/09:30pm 8.3 3.1 3.4 71 2.1 NW 20 33 11 18 1014.6 - 0.0
01/09:00pm 8.4 2.9 3.8 73 2.0 NW 22 32 12 17 1014.6 1014.7 0.0
01/08:30pm 8.0 3.0 3.5 73 1.9 NW 19 30 10 16 1014.6 - 0.0
01/08:00pm 8.2 3.0 3.7 73 1.9 NW 20 33 11 18 1014.5 - 0.0
01/07:30pm 8.2 3.6 3.9 74 1.9 NW 17 26 9 14 1014.5 - 0.0
01/07:00pm 8.5 3.8 3.4 70 2.2 NW 17 24 9 13 1014.5 - 0.0
01/06:30pm 8.9 4.4 4.3 73 2.0 NW 17 22 9 12 1014.6 - 0.0
01/06:00pm 8.8 3.6 3.8 71 2.2 W 20 32 11 17 1014.3 1014.4 0.0
01/05:52pm 8.8 1.3 3.6 70 2.3 W 32 50 17 27 1014.3 - 0.0
01/05:30pm 10.1 2.8 2.7 60 3.2 W 30 43 16 23 1014.0 - 0.0
01/05:00pm 9.8 3.5 3.8 66 2.6 WNW 26 37 14 20 1013.8 - 0.0
01/04:30pm 9.4 3.1 3.6 67 2.5 W 26 44 14 24 1013.8 - 0.0
01/04:00pm 10.1 2.8 2.7 60 3.2 W 30 43 16 23 1013.3 - 0.0
01/03:30pm 10.4 2.8 2.7 59 3.3 W 32 44 17 24 1013.1 - 0.0
01/03:00pm 10.7 3.8 2.5 57 3.5 W 28 39 15 21 1012.9 1013.0 0.0
01/02:30pm 10.7 3.2 1.5 53 3.9 W 30 39 16 21 1012.9 - 0.0
01/02:00pm 10.8 2.9 0.8 50 4.1 W 32 44 17 24 1013.0 - 0.0
01/01:30pm 11.1 4.4 3.9 61 3.2 W 28 41 15 22 1013.0 - 0.0
01/01:00pm 11.0 3.7 2.6 56 3.6 W 30 44 16 24 1013.2 - 0.0
01/12:30pm 10.9 3.5 1.7 53 3.9 W 30 44 16 24 1013.4 - 0.0
01/12:00pm 10.7 2.9 1.8 54 3.8 W 32 43 17 23 1013.3 1013.4 0.0
01/11:30am 10.3 2.6 0.1 49 4.1 W 30 44 16 24 1013.4 - 0.0
01/11:00am 10.0 2.2 1.6 56 3.5 W 32 44 17 24 1013.4 - 0.0
01/10:30am 9.9 1.4 1.0 54 3.7 WSW 35 52 19 28 1013.2 - 0.0
01/10:10am 10.0 2.2 2.8 61 3.1 WSW 33 52 18 28 1013.1 - 0.0
01/10:00am 9.8 1.8 1.5 56 3.5 WSW 33 50 18 27 1013.0 - 0.0
01/09:30am 9.7 0.9 1.4 56 3.5 WSW 37 56 20 30 1012.5 - 0.0
01/09:00am 9.6 -0.4 1.0 55 3.5 WSW 43 61 23 33 1011.9 1012.0 6.2
01/08:43am 9.5 -0.2 0.7 54 3.6 WSW 41 59 22 32 1011.4 - 6.2
01/08:30am 9.4 -0.1 1.8 59 3.2 WSW 41 57 22 31 1011.3 - 6.2
01/08:04am 9.4 0.3 3.8 68 2.5 WSW 41 61 22 33 1010.6 - 6.2
01/08:00am 9.4 0.3 4.2 70 2.3 WSW 41 56 22 30 1010.5 - 6.2
01/07:30am 9.0 1.7 5.4 78 1.6 WSW 33 56 18 30 1010.0 - 6.2
01/07:25am 8.4 2.1 5.9 84 1.1 W 28 56 15 30 1010.0 - 6.2
01/07:00am 8.4 0.8 6.0 85 1.1 W 35 50 19 27 1009.8 - 6.2
01/06:30am 8.3 -1.6 6.6 89 0.8 WSW 48 70 26 38 1009.2 - 6.2
01/06:00am 8.7 0.7 7.5 92 0.6 WSW 39 57 21 31 1008.3 1008.4 5.6
01/05:30am 8.4 -1.3 7.3 93 0.5 WSW 48 69 26 37 1007.8 - 5.0
01/05:17am 9.2 1.7 8.1 93 0.5 WSW 37 61 20 33 1007.4 - 4.8
01/05:00am 9.1 0.8 7.7 91 0.7 W 41 54 22 29 1007.1 - 3.2
01/04:59am 9.3 1.0 7.9 91 0.7 WSW 41 54 22 29 1007.0 - 3.0
01/04:56am 10.0 2.7 8.6 91 0.7 WNW 37 61 20 33 1006.6 - 2.4
01/04:30am 10.0 2.6 8.3 89 0.8 NW 37 63 20 34 1005.3 - 1.6
01/04:00am 10.4 1.7 7.8 84 1.3 NNW 43 80 23 43 1004.4 - 0.6
01/03:57am 10.3 2.4 7.9 85 1.2 NNW 39 80 21 43 1004.5 - 0.4
01/03:37am 9.8 2.8 6.7 81 1.5 NNW 33 52 18 28 1004.7 - 0.4
01/03:30am 10.2 2.7 6.5 78 1.7 NNW 35 52 19 28 1004.9 - 0.0
01/03:00am 11.3 3.6 5.2 66 2.8 N 35 54 19 29 1005.1 1005.2 0.0
01/02:30am 11.4 3.3 5.1 65 2.9 N 37 57 20 31 1005.5 - 0.0
01/02:00am 11.3 3.4 4.5 63 3.1 N 35 61 19 33 1005.8 - 0.0
01/01:30am 11.0 2.7 4.0 62 3.1 NNW 37 57 20 31 1006.5 - 0.0
01/01:00am 10.3 1.4 3.3 62 3.1 N 39 61 21 33 1007.0 - 0.0
01/12:30am 10.0 1.5 3.3 63 2.9 N 37 57 20 31 1007.6 - 0.0
01/12:00am 10.2 2.1 3.5 63 2.9 NNW 35 56 19 30 1008.5 1008.6 0.0
 
Date/Time
EST
Temp
°C
App
Temp
°C
Dew
Point
Rel
Hum
%
Delta-T
°C
Wind Press
QNH
hPa
Press
MSL
hPa
Rain
since 9 am
mm
Dir
 
Spd
km/h
Gust
km/h
Spd
kts
Gust
kts
31/11:35pm 10.1 2.4 3.4 63 2.9 NNW 33 56 18 30 1009.0 - 0.0
31/11:30pm 9.9 2.2 3.2 63 2.9 N 33 50 18 27 1008.8 - 0.0
31/11:00pm 9.7 1.9 2.8 62 3.0 N 33 57 18 31 1009.5 - 0.0
31/10:30pm 9.4 2.5 2.5 62 2.9 N 28 46 15 25 1010.2 - 0.0
31/10:06pm 9.7 2.8 2.6 61 3.0 N 28 48 15 26 1010.6 - 0.0
31/10:00pm 9.4 3.3 2.5 62 2.9 N 24 39 13 21 1010.7 - 0.0
31/09:30pm 9.3 3.2 2.6 63 2.9 N 24 50 13 27 1011.3 - 0.0
31/09:00pm 8.8 4.4 2.8 66 2.6 N 15 24 8 13 1012.0 1012.1 0.0
31/08:30pm 8.7 3.4 2.9 67 2.5 NNW 20 28 11 15 1013.2 - 0.0
31/08:00pm 8.6 4.3 3.2 69 2.3 NW 15 26 8 14 1013.6 - 0.0
31/07:30pm 8.9 4.3 3.5 69 2.3 NW 17 22 9 12 1014.1 - 0.0
31/07:00pm 8.6 3.8 2.8 67 2.5 NNW 17 28 9 15 1014.0 - 0.0
31/06:30pm 8.1 4.1 3.0 70 2.2 NNW 13 19 7 10 1013.7 - 0.0
31/06:00pm 7.7 4.1 2.8 71 2.1 NNW 11 17 6 9 1014.0 1014.1 0.0
31/05:30pm 8.1 4.5 2.8 69 2.2 NW 11 19 6 10 1014.3 - 0.0
31/05:00pm 9.1 5.1 2.9 65 2.7 NW 13 22 7 12 1014.4 - 0.0
31/04:30pm 9.7 5.7 3.0 63 2.9 NW 13 24 7 13 1014.6 - 0.0
31/04:00pm 10.3 5.6 2.9 60 3.2 NW 17 26 9 14 1014.9 - 0.0
31/03:30pm 10.3 5.1 2.4 58 3.4 NW 19 35 10 19 1014.9 - 0.0
31/03:00pm 9.8 4.4 2.2 59 3.2 NW 20 30 11 16 1015.4 1015.6 0.0
31/02:30pm 9.9 2.9 1.8 57 3.4 WNW 28 41 15 22 1015.8 - 0.0
31/02:00pm 10.1 4.2 2.0 57 3.4 NW 22 35 12 19 1016.4 - 0.0
31/01:30pm 9.6 3.8 2.2 60 3.1 WNW 22 35 12 19 1016.8 - 0.0
31/01:00pm 9.8 4.0 2.2 59 3.2 WNW 22 37 12 20 1017.4 - 0.0

Other Formats:

Comma delimited format used in spreadsheet applications
http://www.bom.gov.au/fwo/IDV60801/IDV60801.94842.axf

JavaScript Object Notation format (JSON) in row-major order
http://www.bom.gov.au/fwo/IDV60801/IDV60801.94842.json